Terminal Aerodrome Forecast
Issued by NWS

Home | Current Version | Previous Version | Text Only | Print | Product List | Glossary On
Versions: 1 2 3 4 5 6 7 8 9 10 11 12 13 14 15 16 17 18 19 20 21 22 23 24 25 26 27 28 29 30 31 32 33 34 35 36 37 38 39 40 41 42 43 44 45 46 47 48 49 50
000
FTUS43 KDMX 220235 AAB
TAFOTM
TAF AMD
KOTM 220235Z 2203/2224 VRB03KT 3/4SM BR SCT017
     FM220600 28004KT 3SM BR OVC005
     FM220800 35004KT 1/2SM FG OVC002
     FM221300 35005KT 1SM BR BKN010
     FM221500 34008KT 3SM BR BKN003
     FM221600 34013KT 6SM BR BKN010
     FM221900 33014KT P6SM BKN020=

USA.gov is the U.S. government's official web portal to all federal, state and local government web resources and services.